Time;durP1;ratioP1;P1;durP2;ratioP2;P2;SDS_P1;SDS_P2;PMS_P1;PMS_P2;Temp;Humidity;BMP_temperature;BMP_pressure;BME280_temperature;BME280_humidity;BME280_pressure;Samples;Min_cycle;Max_cycle;Signal;HPM_P1;HPM_P2
2022/05/05 00:00:24;;;;;;;12.27;10.73;;;;;;;;;;4997736;28;20133;-86
2022/05/05 00:02:51;;;;;;;12.30;10.43;;;;;;;;;;4999048;28;20590;-88
2022/05/05 00:05:18;;;;;;;10.75;9.63;;;;;;;;;;5000546;28;20503;-87
2022/05/05 00:07:45;;;;;;;10.65;9.63;;;;;;;;;;4997417;28;20092;-87
2022/05/05 00:15:44;;;;;;;11.23;10.20;;;;;;;;;;5014262;28;20607;-87
2022/05/05 00:18:12;;;;;;;11.25;10.02;;;;;;;;;;4997031;28;20073;-87
2022/05/05 00:20:39;;;;;;;10.57;9.48;;;;;;;;;;4997040;28;20092;-86
2022/05/05 00:23:06;;;;;;;11.65;9.68;;;;;;;;;;4997088;28;20422;-87
2022/05/05 00:25:33;;;;;;;10.65;9.70;;;;;;;;;;4997109;28;20083;-86
2022/05/05 00:28:01;;;;;;;11.63;10.43;;;;;;;;;;4996840;28;20065;-87
2022/05/05 00:30:29;;;;;;;11.60;9.98;;;;;;;;;;5003638;28;20077;-87
2022/05/05 00:32:56;;;;;;;11.43;10.18;;;;;;;;;;4996631;28;20132;-87
2022/05/05 00:35:23;;;;;;;11.13;9.63;;;;;;;;;;4997009;28;20467;-87
2022/05/05 00:37:50;;;;;;;10.45;9.40;;;;;;;;;;4996618;28;20137;-87
2022/05/05 00:40:17;;;;;;;11.25;10.23;;;;;;;;;;4996319;28;20062;-87
2022/05/05 00:42:44;;;;;;;12.13;10.60;;;;;;;;;;4996678;28;20057;-87
2022/05/05 00:45:11;;;;;;;15.02;11.27;;;;;;;;;;4996457;28;20073;-87
2022/05/05 00:47:39;;;;;;;11.90;10.57;;;;;;;;;;4995972;28;20487;-86
2022/05/05 00:50:06;;;;;;;14.48;11.15;;;;;;;;;;4996233;28;20550;-86
2022/05/05 00:52:33;;;;;;;12.80;11.50;;;;;;;;;;4996320;28;20077;-87
2022/05/05 00:55:01;;;;;;;13.98;11.68;;;;;;;;;;4996298;28;20053;-87
2022/05/05 00:57:28;;;;;;;13.00;11.70;;;;;;;;;;4996836;28;20128;-87
2022/05/05 00:59:56;;;;;;;11.50;10.43;;;;;;;;;;4996848;28;20133;-87
2022/05/05 01:02:23;;;;;;;14.95;10.10;;;;;;;;;;4995386;28;20050;-86
2022/05/05 01:04:50;;;;;;;10.18;9.27;;;;;;;;;;4996974;28;20061;-87
2022/05/05 01:07:20;;;;;;;10.93;9.82;;;;;;;;;;5013839;28;20092;-86
2022/05/05 01:09:48;;;;;;;10.32;9.32;;;;;;;;;;4996742;28;20100;-87
2022/05/05 01:12:16;;;;;;;10.27;9.30;;;;;;;;;;4996637;28;20108;-87
2022/05/05 01:14:44;;;;;;;9.60;8.70;;;;;;;;;;4996285;28;20081;-87
2022/05/05 01:17:11;;;;;;;10.30;8.82;;;;;;;;;;5014408;28;20073;-86
2022/05/05 01:19:39;;;;;;;10.95;9.68;;;;;;;;;;4996800;28;20144;-86
2022/05/05 01:22:06;;;;;;;11.02;9.55;;;;;;;;;;4997135;28;20557;-86
2022/05/05 01:30:05;;;;;;;10.70;9.60;;;;;;;;;;5013895;28;20074;-86
2022/05/05 01:32:32;;;;;;;11.25;9.40;;;;;;;;;;5013885;28;20132;-86
2022/05/05 01:34:59;;;;;;;10.20;9.30;;;;;;;;;;4996217;28;20045;-86
2022/05/05 01:37:27;;;;;;;10.25;9.45;;;;;;;;;;4996555;28;20550;-86
2022/05/05 01:39:54;;;;;;;12.13;10.20;;;;;;;;;;4992944;28;20062;-85
2022/05/05 01:42:23;;;;;;;11.27;10.18;;;;;;;;;;4994535;28;20061;-86
2022/05/05 01:44:50;;;;;;;11.32;10.23;;;;;;;;;;4993021;28;20077;-86
2022/05/05 01:47:17;;;;;;;10.93;9.82;;;;;;;;;;4992806;28;20133;-86
2022/05/05 01:49:46;;;;;;;11.10;9.98;;;;;;;;;;4993106;28;20050;-86
2022/05/05 01:52:13;;;;;;;11.88;9.75;;;;;;;;;;4992937;28;20050;-86
2022/05/05 01:54:40;;;;;;;11.90;10.70;;;;;;;;;;4993202;28;20046;-87
2022/05/05 01:57:07;;;;;;;10.45;9.48;;;;;;;;;;4993322;28;20086;-85
2022/05/05 01:59:35;;;;;;;10.50;9.40;;;;;;;;;;4992804;28;20046;-86
2022/05/05 02:02:03;;;;;;;10.52;9.02;;;;;;;;;;4992880;28;20065;-86
2022/05/05 02:04:31;;;;;;;10.38;9.48;;;;;;;;;;4993583;28;20081;-86
2022/05/05 02:06:58;;;;;;;11.68;8.93;;;;;;;;;;4992820;28;20051;-86
2022/05/05 02:09:25;;;;;;;10.40;9.27;;;;;;;;;;4992958;28;20081;-86
2022/05/05 02:11:53;;;;;;;11.18;9.18;;;;;;;;;;4993453;28;20465;-86
2022/05/05 02:14:23;;;;;;;10.13;9.10;;;;;;;;;;4995592;28;20435;-86
2022/05/05 02:16:51;;;;;;;9.52;8.75;;;;;;;;;;4996275;28;20051;-86
2022/05/05 02:19:18;;;;;;;12.25;10.13;;;;;;;;;;4996591;28;20113;-86
2022/05/05 02:21:45;;;;;;;10.43;9.32;;;;;;;;;;4996527;28;20466;-86
2022/05/05 02:24:12;;;;;;;10.60;8.98;;;;;;;;;;4997313;28;20141;-86
2022/05/05 02:26:40;;;;;;;10.57;9.40;;;;;;;;;;4998249;28;20050;-86
2022/05/05 02:29:07;;;;;;;10.10;9.07;;;;;;;;;;4996729;28;20491;-86
2022/05/05 02:31:34;;;;;;;16.33;10.52;;;;;;;;;;4996828;28;20093;-86
2022/05/05 02:34:08;;;;;;;12.70;9.93;;;;;;;;;;4997378;28;20053;-86
2022/05/05 02:39:22;;;;;;;12.00;10.07;;;;;;;;;;4997838;28;20057;-87
2022/05/05 02:41:49;;;;;;;12.50;9.57;;;;;;;;;;4999592;28;20058;-87
2022/05/05 02:44:17;;;;;;;13.02;10.30;;;;;;;;;;4996977;28;20141;-86
2022/05/05 02:46:44;;;;;;;11.48;10.27;;;;;;;;;;4996516;28;20054;-86
2022/05/05 02:49:13;;;;;;;15.38;11.23;;;;;;;;;;4996345;28;20073;-86
2022/05/05 02:51:40;;;;;;;13.85;12.50;;;;;;;;;;4996402;28;20054;-86
2022/05/05 02:56:54;;;;;;;12.52;11.20;;;;;;;;;;4997237;28;20046;-85
2022/05/05 02:59:21;;;;;;;13.07;11.73;;;;;;;;;;4997160;28;20058;-85
2022/05/05 03:01:48;;;;;;;13.35;11.93;;;;;;;;;;4995986;28;20056;-85
2022/05/05 03:04:15;;;;;;;11.82;10.63;;;;;;;;;;4996934;28;20058;-85
2022/05/05 03:06:42;;;;;;;13.60;11.63;;;;;;;;;;4996100;28;20046;-85
2022/05/05 03:09:09;;;;;;;16.25;11.75;;;;;;;;;;4997156;28;20449;-85
2022/05/05 03:11:36;;;;;;;11.88;10.68;;;;;;;;;;4995899;28;20081;-85
2022/05/05 03:14:03;;;;;;;11.43;10.32;;;;;;;;;;4996259;28;20077;-85
2022/05/05 03:16:31;;;;;;;12.57;11.23;;;;;;;;;;4996092;28;20073;-85
2022/05/05 03:18:58;;;;;;;14.93;12.65;;;;;;;;;;4995909;28;20046;-85
2022/05/05 03:21:25;;;;;;;15.27;12.57;;;;;;;;;;4996667;28;20086;-86
2022/05/05 03:23:52;;;;;;;16.80;11.95;;;;;;;;;;4995945;28;20133;-85
2022/05/05 03:26:19;;;;;;;12.80;11.45;;;;;;;;;;4995491;28;20057;-86
2022/05/05 03:28:46;;;;;;;14.07;12.35;;;;;;;;;;4996603;28;20510;-85
2022/05/05 03:31:13;;;;;;;13.43;12.00;;;;;;;;;;4996611;28;20062;-83
2022/05/05 03:33:41;;;;;;;13.38;12.07;;;;;;;;;;4996761;28;20560;-85
2022/05/05 03:36:09;;;;;;;14.82;12.95;;;;;;;;;;4996656;28;20484;-84
2022/05/05 03:38:36;;;;;;;14.55;12.45;;;;;;;;;;4996367;28;20136;-85
2022/05/05 03:41:05;;;;;;;12.98;11.55;;;;;;;;;;4996913;28;20145;-85
2022/05/05 03:43:32;;;;;;;15.00;13.50;;;;;;;;;;4998230;28;20495;-86
2022/05/05 03:46:05;;;;;;;14.60;13.20;;;;;;;;;;4998608;28;20046;-86
2022/05/05 03:48:32;;;;;;;15.55;12.85;;;;;;;;;;4998030;28;20420;-85
2022/05/05 03:51:00;;;;;;;15.68;13.00;;;;;;;;;;4998375;28;20046;-85
2022/05/05 03:53:27;;;;;;;14.60;13.10;;;;;;;;;;4999566;28;20073;-85
2022/05/05 03:55:54;;;;;;;14.70;13.27;;;;;;;;;;5001680;28;20121;-85
2022/05/05 03:58:22;;;;;;;14.68;13.15;;;;;;;;;;5001128;28;20130;-85
2022/05/05 04:00:49;;;;;;;16.83;15.02;;;;;;;;;;5001077;28;20527;-85
2022/05/05 04:03:32;;;;;;;17.75;15.85;;;;;;;;;;4995219;28;20062;-84
2022/05/05 04:06:01;;;;;;;16.85;14.35;;;;;;;;;;4995063;28;20050;-85
2022/05/05 04:08:29;;;;;;;18.08;15.30;;;;;;;;;;4993862;28;20534;-84
2022/05/05 04:10:56;;;;;;;21.60;16.20;;;;;;;;;;4993715;28;20078;-85
2022/05/05 04:13:25;;;;;;;19.38;16.95;;;;;;;;;;4993657;28;20114;-87
2022/05/05 04:15:52;;;;;;;16.95;14.35;;;;;;;;;;4994918;28;20069;-84
2022/05/05 04:18:20;;;;;;;17.10;14.63;;;;;;;;;;4995228;28;20065;-87
2022/05/05 04:20:47;;;;;;;15.23;13.60;;;;;;;;;;4995025;28;20483;-85
2022/05/05 04:23:14;;;;;;;17.13;13.50;;;;;;;;;;4994972;28;20415;-86
2022/05/05 04:26:05;;;;;;;13.90;12.50;;;;;;;;;;4995104;28;20081;-84
2022/05/05 04:28:33;;;;;;;12.30;11.02;;;;;;;;;;4995867;28;20047;-86
2022/05/05 04:31:00;;;;;;;14.27;9.93;;;;;;;;;;4995846;28;20080;-87
2022/05/05 04:33:27;;;;;;;11.90;10.38;;;;;;;;;;4995711;28;20057;-86
2022/05/05 04:35:54;;;;;;;16.30;10.50;;;;;;;;;;4986622;28;20454;-86
2022/05/05 04:38:22;;;;;;;13.00;9.43;;;;;;;;;;4985377;28;20046;-86
2022/05/05 04:40:49;;;;;;;15.43;9.50;;;;;;;;;;4994661;28;20078;-87
2022/05/05 04:43:17;;;;;;;12.13;9.25;;;;;;;;;;4994875;28;20106;-86
2022/05/05 04:45:44;;;;;;;13.88;9.93;;;;;;;;;;4995701;28;20104;-86
2022/05/05 04:48:11;;;;;;;11.52;9.40;;;;;;;;;;4995668;28;20142;-85
2022/05/05 04:50:39;;;;;;;14.00;11.32;;;;;;;;;;4994918;28;20136;-86
2022/05/05 04:53:06;;;;;;;14.00;11.15;;;;;;;;;;4995722;28;20268;-86
2022/05/05 04:55:33;;;;;;;17.77;10.55;;;;;;;;;;4995405;28;20046;-86
2022/05/05 04:58:00;;;;;;;13.13;9.60;;;;;;;;;;4995797;28;20492;-85
2022/05/05 05:00:28;;;;;;;11.50;9.65;;;;;;;;;;4994719;28;20046;-86
2022/05/05 05:02:55;;;;;;;20.23;10.05;;;;;;;;;;4995768;28;20489;-86
2022/05/05 05:05:22;;;;;;;16.58;10.65;;;;;;;;;;4994191;28;20039;-86
2022/05/05 05:07:49;;;;;;;13.30;9.40;;;;;;;;;;4996018;28;20069;-87
2022/05/05 05:10:16;;;;;;;12.75;10.20;;;;;;;;;;4995389;28;20138;-87
2022/05/05 05:12:44;;;;;;;31.25;10.70;;;;;;;;;;4995028;28;20088;-87
2022/05/05 05:15:11;;;;;;;12.60;10.20;;;;;;;;;;4995191;28;20130;-86
2022/05/05 05:17:39;;;;;;;17.77;10.88;;;;;;;;;;4999068;28;20070;-86
2022/05/05 05:20:06;;;;;;;14.45;11.70;;;;;;;;;;4995668;28;20058;-87
2022/05/05 05:22:33;;;;;;;14.40;11.50;;;;;;;;;;4994680;28;20486;-85
2022/05/05 05:25:02;;;;;;;14.77;12.20;;;;;;;;;;4994104;28;20117;-85
2022/05/05 05:27:29;;;;;;;16.38;13.25;;;;;;;;;;4994335;28;20500;-86
2022/05/05 05:29:57;;;;;;;20.25;14.13;;;;;;;;;;4994205;28;20105;-84
2022/05/05 05:32:24;;;;;;;17.30;14.82;;;;;;;;;;4993862;28;20113;-85
2022/05/05 05:34:51;;;;;;;20.23;14.65;;;;;;;;;;4994256;28;20076;-84
2022/05/05 05:37:19;;;;;;;18.75;14.07;;;;;;;;;;4994257;28;20129;-85
2022/05/05 05:39:47;;;;;;;18.98;15.10;;;;;;;;;;4996829;28;20126;-85
2022/05/05 05:42:14;;;;;;;16.52;14.38;;;;;;;;;;4997815;28;20137;-85
2022/05/05 05:44:41;;;;;;;20.95;16.05;;;;;;;;;;4997498;28;20571;-86
2022/05/05 05:47:10;;;;;;;21.13;15.77;;;;;;;;;;4998165;28;20050;-85
2022/05/05 05:49:37;;;;;;;20.10;15.25;;;;;;;;;;5000655;28;20056;-85
2022/05/05 05:52:04;;;;;;;16.65;14.80;;;;;;;;;;5001505;28;20077;-86
2022/05/05 05:54:31;;;;;;;17.85;14.40;;;;;;;;;;5001735;28;20077;-85
2022/05/05 05:56:59;;;;;;;14.25;12.85;;;;;;;;;;5001979;28;20128;-85
2022/05/05 05:59:26;;;;;;;17.77;12.00;;;;;;;;;;5001729;28;20092;-85
2022/05/05 06:04:39;;;;;;;12.82;11.57;;;;;;;;;;5019699;28;20065;-86
2022/05/05 06:07:06;;;;;;;14.73;11.63;;;;;;;;;;5002093;28;20673;-85
2022/05/05 06:09:33;;;;;;;13.75;12.25;;;;;;;;;;5002480;28;20168;-86
2022/05/05 06:12:00;;;;;;;12.13;10.93;;;;;;;;;;5002296;28;20089;-86
2022/05/05 06:14:27;;;;;;;12.88;11.55;;;;;;;;;;5002672;28;20068;-84
2022/05/05 06:16:54;;;;;;;12.38;11.23;;;;;;;;;;5002787;28;20076;-85
2022/05/05 06:19:21;;;;;;;12.52;10.93;;;;;;;;;;5003386;28;20060;-85
2022/05/05 06:21:50;;;;;;;12.43;11.00;;;;;;;;;;5002216;28;20092;-85
2022/05/05 06:24:17;;;;;;;12.43;11.23;;;;;;;;;;5003566;28;20108;-85
2022/05/05 06:26:44;;;;;;;12.55;11.35;;;;;;;;;;5003761;28;20046;-85
2022/05/05 06:29:12;;;;;;;13.57;12.18;;;;;;;;;;5004389;28;20420;-84
2022/05/05 06:31:39;;;;;;;13.00;11.70;;;;;;;;;;5004189;28;20050;-86
2022/05/05 06:34:06;;;;;;;12.20;10.85;;;;;;;;;;5004599;28;20046;-86
2022/05/05 06:36:33;;;;;;;14.50;12.20;;;;;;;;;;5006180;28;20419;-85
2022/05/05 06:39:02;;;;;;;12.50;10.82;;;;;;;;;;4999762;28;20116;-85
2022/05/05 06:41:29;;;;;;;10.23;9.32;;;;;;;;;;4996890;28;20086;-84
2022/05/05 06:43:56;;;;;;;10.35;9.35;;;;;;;;;;4999461;28;20078;-84
2022/05/05 06:46:23;;;;;;;10.73;9.73;;;;;;;;;;4999694;28;20492;-86
2022/05/05 06:48:57;;;;;;;9.93;8.93;;;;;;;;;;5000299;28;20070;-85
2022/05/05 06:51:24;;;;;;;11.07;10.07;;;;;;;;;;5016704;28;20515;-86
2022/05/05 06:53:51;;;;;;;10.40;9.40;;;;;;;;;;4998732;28;20545;-84
2022/05/05 06:56:18;;;;;;;9.30;8.50;;;;;;;;;;4998605;28;20085;-82
2022/05/05 06:58:46;;;;;;;8.68;7.93;;;;;;;;;;5016105;28;20046;-85
2022/05/05 07:06:44;;;;;;;7.80;7.07;;;;;;;;;;5015691;28;20141;-83
2022/05/05 07:11:57;;;;;;;9.38;8.57;;;;;;;;;;5015551;28;20076;-83
2022/05/05 07:14:25;;;;;;;9.45;8.23;;;;;;;;;;4998249;28;20081;-85
2022/05/05 07:16:52;;;;;;;9.13;7.97;;;;;;;;;;4998383;28;20120;-82
2022/05/05 07:19:19;;;;;;;11.45;9.52;;;;;;;;;;4998533;28;20100;-84
2022/05/05 07:21:46;;;;;;;8.82;7.93;;;;;;;;;;5016804;28;20073;-84
2022/05/05 07:24:13;;;;;;;9.00;8.20;;;;;;;;;;5016470;28;20125;-86
2022/05/05 07:26:41;;;;;;;8.10;7.40;;;;;;;;;;4999188;28;20466;-83
2022/05/05 07:29:08;;;;;;;10.98;8.55;;;;;;;;;;4999534;28;20084;-84
2022/05/05 07:31:36;;;;;;;8.90;7.95;;;;;;;;;;4997057;28;20045;-84
2022/05/05 07:34:04;;;;;;;8.75;7.95;;;;;;;;;;4997167;28;20042;-85
2022/05/05 07:36:31;;;;;;;9.38;8.45;;;;;;;;;;4995843;28;20050;-85
2022/05/05 07:38:58;;;;;;;8.68;7.82;;;;;;;;;;4996335;28;20101;-86
2022/05/05 07:41:25;;;;;;;8.65;7.95;;;;;;;;;;4997692;28;20121;-82
2022/05/05 07:43:53;;;;;;;9.13;7.88;;;;;;;;;;4997416;28;20054;-83
2022/05/05 07:46:20;;;;;;;13.35;9.30;;;;;;;;;;4997910;28;20579;-86
2022/05/05 07:48:47;;;;;;;9.43;8.48;;;;;;;;;;4999029;28;20058;-85
2022/05/05 07:51:14;;;;;;;9.55;8.65;;;;;;;;;;4999972;28;20081;-86
2022/05/05 07:54:34;;;;;;;9.65;8.75;;;;;;;;;;5003552;28;20046;-81
2022/05/05 07:56:34;;;;;;;11.88;9.70;;;;;;;;;;4997443;28;20496;-81
2022/05/05 07:59:01;;;;;;;10.65;8.57;;;;;;;;;;4996164;28;20093;-82
2022/05/05 08:01:28;;;;;;;9.65;8.75;;;;;;;;;;4996288;28;20145;-85
2022/05/05 08:03:56;;;;;;;9.55;8.75;;;;;;;;;;4995238;28;20546;-84
2022/05/05 08:06:23;;;;;;;9.10;8.30;;;;;;;;;;4995165;28;20058;-85
2022/05/05 08:08:50;;;;;;;12.93;11.50;;;;;;;;;;4996740;28;20054;-85
2022/05/05 08:11:17;;;;;;;13.02;11.73;;;;;;;;;;4994916;28;20129;-82
2022/05/05 08:13:45;;;;;;;20.88;16.88;;;;;;;;;;4995850;28;20130;-83
2022/05/05 08:16:12;;;;;;;18.35;16.38;;;;;;;;;;4996096;28;20070;-86
2022/05/05 08:18:39;;;;;;;18.73;15.98;;;;;;;;;;4997072;28;20056;-85
2022/05/05 08:21:09;;;;;;;16.20;14.27;;;;;;;;;;4996539;28;20072;-83
2022/05/05 08:23:36;;;;;;;16.77;13.30;;;;;;;;;;4995803;28;20050;-83
2022/05/05 08:28:49;;;;;;;14.07;12.57;;;;;;;;;;4995607;28;20070;-82
2022/05/05 08:31:16;;;;;;;12.65;11.15;;;;;;;;;;4995049;28;20133;-86
2022/05/05 08:33:44;;;;;;;14.35;10.50;;;;;;;;;;4994765;28;20514;-85
2022/05/05 08:36:11;;;;;;;12.00;10.70;;;;;;;;;;4995507;28;20137;-85
2022/05/05 08:38:39;;;;;;;12.55;10.07;;;;;;;;;;4995432;28;20056;-85
2022/05/05 08:41:09;;;;;;;9.82;8.82;;;;;;;;;;4995358;28;20058;-85
2022/05/05 08:43:37;;;;;;;12.23;8.70;;;;;;;;;;4995807;28;20077;-85
2022/05/05 08:46:28;;;;;;;10.38;9.25;;;;;;;;;;4995643;28;20065;-84
2022/05/05 08:48:59;;;;;;;37.90;11.25;;;;;;;;;;4996289;28;20124;-84
2022/05/05 08:51:31;;;;;;;10.82;8.52;;;;;;;;;;4996709;28;20054;-85
2022/05/05 08:54:00;;;;;;;8.93;8.15;;;;;;;;;;4997447;28;20125;-85
2022/05/05 08:56:27;;;;;;;9.68;7.32;;;;;;;;;;4996883;28;20047;-86
2022/05/05 08:58:54;;;;;;;11.43;7.65;;;;;;;;;;4997831;28;20138;-84
2022/05/05 09:01:21;;;;;;;9.40;6.97;;;;;;;;;;4997231;28;20074;-85
2022/05/05 09:03:48;;;;;;;7.43;6.70;;;;;;;;;;4999429;28;20046;-86
2022/05/05 09:06:15;;;;;;;8.13;6.65;;;;;;;;;;5001123;28;20415;-85
2022/05/05 09:08:47;;;;;;;7.07;6.38;;;;;;;;;;5001651;28;20053;-85
2022/05/05 09:11:18;;;;;;;13.18;7.55;;;;;;;;;;5002177;28;20046;-86
2022/05/05 09:13:46;;;;;;;6.97;6.35;;;;;;;;;;5001630;28;20477;-82
2022/05/05 09:16:23;;;;;;;7.10;6.40;;;;;;;;;;5000626;28;20089;-81
2022/05/05 09:18:51;;;;;;;10.35;6.63;;;;;;;;;;5001346;28;20061;-81
2022/05/05 09:21:21;;;;;;;8.65;7.82;;;;;;;;;;4999888;28;20050;-80
2022/05/05 09:26:36;;;;;;;7.68;7.03;;;;;;;;;;5001401;28;20050;-81
2022/05/05 09:29:19;;;;;;;8.85;7.80;;;;;;;;;;5001139;28;20065;-81
2022/05/05 09:31:48;;;;;;;9.57;8.75;;;;;;;;;;5000735;28;20072;-82
2022/05/05 09:34:19;;;;;;;9.50;8.40;;;;;;;;;;4999575;28;20583;-84
2022/05/05 09:36:53;;;;;;;9.80;8.73;;;;;;;;;;5002450;28;20066;-80
2022/05/05 09:39:20;;;;;;;11.60;9.18;;;;;;;;;;4996711;28;20042;-80
2022/05/05 09:41:49;;;;;;;8.50;7.78;;;;;;;;;;4999300;28;20069;-83
2022/05/05 09:44:20;;;;;;;9.60;7.80;;;;;;;;;;4999244;28;20054;-82
2022/05/05 09:46:48;;;;;;;10.73;7.53;;;;;;;;;;4999499;28;20097;-83
2022/05/05 09:49:17;;;;;;;10.27;9.15;;;;;;;;;;4999556;28;20070;-81
2022/05/05 10:05:43;;;;;;;10.85;8.90;;;;;;;;;;5007838;28;20046;-82
2022/05/05 10:08:20;;;;;;;9.88;8.82;;;;;;;;;;4992656;28;20637;-82
2022/05/05 10:10:48;;;;;;;10.32;9.13;;;;;;;;;;4999436;28;20050;-82
2022/05/05 10:13:20;;;;;;;8.88;7.93;;;;;;;;;;5020775;28;20045;-83
2022/05/05 10:15:49;;;;;;;8.93;7.97;;;;;;;;;;5002889;28;20085;-82
2022/05/05 10:18:27;;;;;;;7.70;7.00;;;;;;;;;;5004159;28;20046;-83
2022/05/05 10:20:58;;;;;;;10.13;7.68;;;;;;;;;;5003114;28;20066;-83
2022/05/05 10:23:44;;;;;;;8.73;7.63;;;;;;;;;;5019914;28;20057;-83
2022/05/05 10:26:12;;;;;;;8.95;8.02;;;;;;;;;;5002945;28;20062;-86
2022/05/05 10:28:44;;;;;;;7.72;7.13;;;;;;;;;;5002179;28;20423;-83
2022/05/05 10:31:12;;;;;;;8.52;7.60;;;;;;;;;;5002250;28;20061;-84
2022/05/05 10:34:01;;;;;;;8.80;7.30;;;;;;;;;;5003382;28;20084;-85
2022/05/05 10:36:29;;;;;;;9.63;7.65;;;;;;;;;;5006807;28;20483;-86
2022/05/05 10:38:57;;;;;;;8.48;7.57;;;;;;;;;;5007115;28;20082;-84
2022/05/05 10:41:36;;;;;;;10.00;7.82;;;;;;;;;;5024116;28;20085;-85
2022/05/05 10:44:19;;;;;;;7.97;7.28;;;;;;;;;;5007677;28;20092;-85
2022/05/05 10:47:01;;;;;;;11.90;8.43;;;;;;;;;;5006641;28;20085;-85
2022/05/05 10:49:37;;;;;;;49.22;25.83;;;;;;;;;;5006541;28;20084;-84
2022/05/05 10:52:10;;;;;;;21.30;14.15;;;;;;;;;;5007227;28;20085;-85
2022/05/05 10:54:37;;;;;;;9.07;7.25;;;;;;;;;;5007181;28;20403;-86
2022/05/05 10:57:23;;;;;;;24.40;18.58;;;;;;;;;;5006735;28;20046;-86
2022/05/05 11:00:19;;;;;;;23.70;18.63;;;;;;;;;;4993161;28;20125;-84
2022/05/05 11:03:01;;;;;;;12.73;8.30;;;;;;;;;;4995620;28;20129;-83
2022/05/05 11:05:30;;;;;;;9.18;8.27;;;;;;;;;;5004003;28;20491;-81
2022/05/05 11:08:10;;;;;;;9.02;8.23;;;;;;;;;;5000781;28;20042;-85
2022/05/05 11:13:40;;;;;;;10.13;7.75;;;;;;;;;;5022568;28;20049;-85
2022/05/05 11:22:11;;;;;;;13.43;10.45;;;;;;;;;;5022473;28;20053;-85
2022/05/05 11:24:41;;;;;;;13.27;9.70;;;;;;;;;;5005161;28;20137;-85
2022/05/05 11:27:12;;;;;;;12.00;10.30;;;;;;;;;;5021125;28;20124;-85
2022/05/05 11:29:40;;;;;;;11.48;10.30;;;;;;;;;;5005882;28;20104;-85
2022/05/05 11:32:08;;;;;;;12.15;10.73;;;;;;;;;;5005545;28;20046;-85
2022/05/05 11:34:40;;;;;;;14.70;10.55;;;;;;;;;;5004862;28;20133;-84
2022/05/05 11:37:09;;;;;;;13.18;10.60;;;;;;;;;;5005717;28;20045;-85
2022/05/05 11:39:36;;;;;;;12.15;10.63;;;;;;;;;;5003837;28;20076;-84
2022/05/05 11:42:04;;;;;;;11.48;10.00;;;;;;;;;;5004734;28;20041;-85
2022/05/05 11:44:36;;;;;;;11.70;9.40;;;;;;;;;;5003213;28;20046;-85
2022/05/05 11:47:13;;;;;;;12.57;10.30;;;;;;;;;;5002858;28;20133;-85
2022/05/05 11:49:43;;;;;;;11.18;10.02;;;;;;;;;;5004058;28;20049;-83
2022/05/05 11:52:15;;;;;;;11.48;9.10;;;;;;;;;;5003019;28;20096;-84
2022/05/05 11:54:45;;;;;;;21.00;10.23;;;;;;;;;;5003222;28;20103;-84
2022/05/05 11:57:12;;;;;;;13.25;11.45;;;;;;;;;;5003435;28;20117;-84
2022/05/05 12:02:25;;;;;;;14.15;10.60;;;;;;;;;;5019914;28;20132;-84
2022/05/05 12:04:54;;;;;;;13.70;10.30;;;;;;;;;;5003579;28;20050;-85
2022/05/05 12:07:24;;;;;;;11.40;10.25;;;;;;;;;;5003761;28;20050;-85
2022/05/05 12:09:52;;;;;;;12.77;10.80;;;;;;;;;;5003436;28;20050;-84
2022/05/05 12:12:21;;;;;;;13.30;9.80;;;;;;;;;;5003143;28;20057;-85
2022/05/05 12:14:49;;;;;;;16.88;9.80;;;;;;;;;;5020119;28;20499;-83
2022/05/05 12:17:18;;;;;;;12.00;9.88;;;;;;;;;;5020357;28;20050;-84
2022/05/05 12:19:48;;;;;;;13.32;9.05;;;;;;;;;;5003152;28;20050;-83
2022/05/05 12:22:22;;;;;;;11.27;9.95;;;;;;;;;;5002506;28;20046;-85
2022/05/05 12:24:49;;;;;;;10.27;9.25;;;;;;;;;;5001778;28;20065;-84
2022/05/05 12:27:17;;;;;;;9.75;8.80;;;;;;;;;;5001880;28;20042;-85
2022/05/05 12:29:45;;;;;;;11.70;9.38;;;;;;;;;;5001676;28;20450;-85
2022/05/05 12:32:15;;;;;;;24.05;9.32;;;;;;;;;;5003053;28;20104;-85
2022/05/05 12:34:43;;;;;;;11.20;9.10;;;;;;;;;;5020021;28;20056;-84
2022/05/05 12:37:20;;;;;;;14.32;8.27;;;;;;;;;;5020120;28;20042;-84
2022/05/05 12:39:48;;;;;;;12.27;8.80;;;;;;;;;;5002382;28;20068;-84
2022/05/05 12:42:16;;;;;;;14.50;8.40;;;;;;;;;;5002740;28;20081;-84
2022/05/05 12:44:44;;;;;;;10.88;8.48;;;;;;;;;;5001410;28;20077;-84
2022/05/05 12:47:12;;;;;;;11.00;8.32;;;;;;;;;;5019563;28;20073;-85
2022/05/05 12:49:41;;;;;;;11.25;8.32;;;;;;;;;;5019356;28;20050;-82
2022/05/05 13:00:51;;;;;;;9.35;8.45;;;;;;;;;;5019659;28;20077;-83
2022/05/05 13:03:38;;;;;;;9.70;8.70;;;;;;;;;;5005953;28;20503;-83
2022/05/05 13:06:06;;;;;;;11.32;8.77;;;;;;;;;;5003252;28;20066;-85
2022/05/05 13:08:49;;;;;;;9.10;7.55;;;;;;;;;;5004824;28;20050;-85
2022/05/05 13:11:17;;;;;;;9.23;7.90;;;;;;;;;;5001270;28;20107;-85
2022/05/05 13:13:45;;;;;;;9.02;7.15;;;;;;;;;;5001964;28;20133;-84
2022/05/05 13:16:12;;;;;;;9.55;6.85;;;;;;;;;;5019305;28;20050;-83
2022/05/05 13:18:40;;;;;;;17.38;7.20;;;;;;;;;;5001723;28;20442;-83
2022/05/05 13:21:07;;;;;;;26.23;9.27;;;;;;;;;;5001660;28;20465;-84
2022/05/05 13:23:35;;;;;;;9.93;6.97;;;;;;;;;;5001834;28;20088;-83
2022/05/05 13:26:03;;;;;;;8.05;6.90;;;;;;;;;;5001256;28;20096;-81
2022/05/05 13:28:31;;;;;;;8.48;7.20;;;;;;;;;;5001125;28;20108;-83
2022/05/05 13:30:58;;;;;;;9.70;7.28;;;;;;;;;;5018539;28;20070;-84
2022/05/05 13:33:26;;;;;;;9.23;7.15;;;;;;;;;;5019137;28;20411;-84
2022/05/05 13:35:53;;;;;;;9.35;6.47;;;;;;;;;;5001810;28;20064;-83
2022/05/05 13:38:20;;;;;;;11.23;6.53;;;;;;;;;;5001523;28;20476;-85
2022/05/05 13:40:47;;;;;;;9.27;6.80;;;;;;;;;;5001063;28;20093;-84
2022/05/05 13:43:14;;;;;;;9.40;6.35;;;;;;;;;;5001146;28;20061;-85
2022/05/05 13:45:41;;;;;;;8.18;7.38;;;;;;;;;;5000449;28;20134;-83
2022/05/05 13:48:09;;;;;;;9.77;7.63;;;;;;;;;;5001012;28;20053;-82
2022/05/05 13:50:36;;;;;;;9.48;7.53;;;;;;;;;;5001293;28;20487;-85
2022/05/05 13:53:03;;;;;;;14.00;7.70;;;;;;;;;;5001069;28;20419;-84
2022/05/05 13:55:31;;;;;;;12.00;7.50;;;;;;;;;;5019314;28;20086;-85
2022/05/05 13:57:58;;;;;;;13.18;6.88;;;;;;;;;;5001503;28;20046;-84
2022/05/05 14:00:25;;;;;;;12.70;6.97;;;;;;;;;;5018871;28;20069;-85
2022/05/05 14:02:53;;;;;;;6.28;5.68;;;;;;;;;;5000763;28;20061;-85
2022/05/05 14:05:20;;;;;;;7.53;6.30;;;;;;;;;;5000759;28;20073;-85
2022/05/05 14:13:19;;;;;;;9.13;6.50;;;;;;;;;;5021408;28;20096;-83
2022/05/05 14:15:48;;;;;;;9.68;6.22;;;;;;;;;;5021060;28;20065;-83
2022/05/05 14:18:18;;;;;;;13.80;6.43;;;;;;;;;;4999765;28;20066;-82
2022/05/05 14:20:46;;;;;;;10.63;7.20;;;;;;;;;;5002309;28;20084;-81
2022/05/05 14:23:13;;;;;;;8.82;6.22;;;;;;;;;;5006089;28;20099;-80
2022/05/05 14:25:40;;;;;;;10.93;7.20;;;;;;;;;;4999478;28;20050;-80
2022/05/05 14:28:08;;;;;;;7.55;6.32;;;;;;;;;;4997418;28;20458;-80
2022/05/05 14:30:35;;;;;;;11.02;6.72;;;;;;;;;;4995863;28;20051;-80
2022/05/05 14:33:03;;;;;;;6.97;6.28;;;;;;;;;;4997844;28;20531;-81
2022/05/05 14:35:30;;;;;;;9.07;6.03;;;;;;;;;;5000108;28;20050;-81
2022/05/05 14:37:59;;;;;;;7.13;6.50;;;;;;;;;;4999851;28;20042;-81
2022/05/05 14:40:28;;;;;;;7.13;6.43;;;;;;;;;;4999679;28;20085;-81
2022/05/05 14:42:56;;;;;;;12.90;6.90;;;;;;;;;;4999939;28;20057;-81
2022/05/05 14:45:23;;;;;;;9.10;5.93;;;;;;;;;;5000340;28;20081;-81
2022/05/05 14:47:52;;;;;;;10.18;5.35;;;;;;;;;;5001567;28;20070;-82
2022/05/05 14:50:19;;;;;;;7.47;5.20;;;;;;;;;;4999190;28;20133;-81
2022/05/05 14:52:49;;;;;;;7.43;5.63;;;;;;;;;;4998510;28;20050;-82
2022/05/05 14:55:17;;;;;;;9.40;5.82;;;;;;;;;;4999741;28;20050;-81
2022/05/05 14:57:45;;;;;;;7.97;5.25;;;;;;;;;;4998957;28;20086;-82
2022/05/05 15:00:12;;;;;;;8.02;5.70;;;;;;;;;;4999346;28;20078;-82
2022/05/05 15:02:43;;;;;;;6.72;4.93;;;;;;;;;;4998847;28;20089;-81
2022/05/05 15:05:12;;;;;;;8.00;4.85;;;;;;;;;;4999947;28;20054;-81
2022/05/05 15:07:40;;;;;;;11.93;5.65;;;;;;;;;;4998842;28;20085;-82
2022/05/05 15:10:08;;;;;;;7.78;5.28;;;;;;;;;;4998544;28;20133;-81
2022/05/05 15:12:37;;;;;;;5.93;5.28;;;;;;;;;;4998357;28;20097;-80
2022/05/05 15:15:05;;;;;;;10.23;4.68;;;;;;;;;;4998241;28;20073;-81
2022/05/05 15:17:33;;;;;;;8.05;5.60;;;;;;;;;;5000043;28;20058;-80
2022/05/05 15:20:00;;;;;;;5.75;4.53;;;;;;;;;;4997741;28;20046;-80
2022/05/05 15:22:27;;;;;;;8.05;4.82;;;;;;;;;;4997546;28;20077;-80
2022/05/05 15:25:10;;;;;;;7.50;4.85;;;;;;;;;;5000048;28;20084;-80
2022/05/05 15:27:38;;;;;;;7.25;5.07;;;;;;;;;;4999467;28;20070;-79
2022/05/05 15:30:06;;;;;;;7.15;4.55;;;;;;;;;;5001187;28;20133;-80
2022/05/05 15:32:34;;;;;;;9.02;5.05;;;;;;;;;;5000546;28;20070;-82
2022/05/05 15:35:03;;;;;;;9.02;5.10;;;;;;;;;;4999576;28;20575;-82
2022/05/05 15:37:33;;;;;;;7.25;4.80;;;;;;;;;;5000355;28;20109;-82
2022/05/05 15:40:00;;;;;;;5.32;4.60;;;;;;;;;;5002066;28;20058;-83
2022/05/05 15:42:28;;;;;;;6.60;4.68;;;;;;;;;;5001497;28;20116;-81
2022/05/05 15:44:58;;;;;;;7.63;5.28;;;;;;;;;;4999435;28;20148;-81
2022/05/05 15:47:27;;;;;;;7.53;4.93;;;;;;;;;;4998241;28;20054;-82
2022/05/05 15:49:54;;;;;;;8.32;4.72;;;;;;;;;;4997846;28;20061;-82